createdAt,value
2022-12-09T00:00:23.650Z,63.93
2022-12-09T00:02:57.015Z,63.71
2022-12-09T00:05:30.568Z,64.06
2022-12-09T00:08:03.554Z,64.01
2022-12-09T00:10:37.834Z,63.62
2022-12-09T00:13:12.253Z,63.63
2022-12-09T00:15:46.889Z,63.63
2022-12-09T00:18:20.411Z,63.75
2022-12-09T00:20:53.931Z,63.81
2022-12-09T00:23:26.936Z,63.25
2022-12-09T00:26:00.021Z,63.74
2022-12-09T00:28:34.750Z,63.28
2022-12-09T00:31:09.204Z,63.23
2022-12-09T00:33:42.420Z,64.03
2022-12-09T00:36:17.014Z,64.46
2022-12-09T00:38:50.734Z,64.55
2022-12-09T00:41:23.977Z,64.68
2022-12-09T00:43:59.405Z,65.08
2022-12-09T00:46:32.646Z,65.36
2022-12-09T00:49:06.522Z,65.66
2022-12-09T00:51:39.675Z,65.60
2022-12-09T00:54:13.217Z,65.70
2022-12-09T00:56:46.115Z,65.96
2022-12-09T00:59:20.529Z,66.24
2022-12-09T01:01:54.936Z,66.71
2022-12-09T01:04:28.509Z,66.49
2022-12-09T01:07:02.013Z,66.75
2022-12-09T01:09:35.618Z,66.82
2022-12-09T01:12:09.245Z,66.74
2022-12-09T01:14:43.762Z,66.99
2022-12-09T01:17:16.776Z,67.43
2022-12-09T01:19:52.601Z,67.42
2022-12-09T01:22:30.097Z,67.44
2022-12-09T01:25:03.550Z,67.51
2022-12-09T01:27:37.079Z,67.64
2022-12-09T01:30:14.191Z,67.64
2022-12-09T01:32:47.275Z,67.92
2022-12-09T01:35:20.671Z,67.47
2022-12-09T01:37:54.114Z,67.43
2022-12-09T01:40:27.485Z,67.66
2022-12-09T01:43:00.370Z,67.13
2022-12-09T01:45:42.257Z,67.12
2022-12-09T01:48:18.660Z,67.01
2022-12-09T01:50:55.553Z,66.94
2022-12-09T01:53:31.660Z,67.15
2022-12-09T01:56:10.696Z,67.14
2022-12-09T01:58:44.734Z,67.32
2022-12-09T02:01:20.022Z,67.16
2022-12-09T02:03:53.379Z,67.01
2022-12-09T02:06:27.482Z,67.01
2022-12-09T02:09:00.731Z,67.28
2022-12-09T02:11:46.186Z,67.13
2022-12-09T02:14:26.435Z,67.21
2022-12-09T02:17:17.060Z,67.77
2022-12-09T02:20:01.806Z,67.94
2022-12-09T02:22:39.764Z,68.08
2022-12-09T02:25:29.601Z,68.85
2022-12-09T02:28:24.834Z,68.94
2022-12-09T02:31:11.518Z,68.71
2022-12-09T02:34:02.560Z,68.90
2022-12-09T02:36:48.600Z,68.95
2022-12-09T02:39:26.092Z,68.83
2022-12-09T02:42:07.850Z,68.90
2022-12-09T02:44:42.057Z,68.63
2022-12-09T02:47:18.429Z,68.89
2022-12-09T02:49:55.870Z,69.15
2022-12-09T02:52:30.911Z,68.84
2022-12-09T02:55:07.714Z,68.98
2022-12-09T02:57:42.008Z,69.07
2022-12-09T03:00:16.958Z,68.92
2022-12-09T03:02:55.464Z,68.94
2022-12-09T03:05:42.953Z,68.46
2022-12-09T03:08:24.154Z,68.84
2022-12-09T03:11:01.380Z,68.62
2022-12-09T03:13:48.066Z,68.42
2022-12-09T03:16:26.891Z,68.24
2022-12-09T03:19:05.343Z,68.10
2022-12-09T03:21:45.548Z,68.15
2022-12-09T03:24:21.607Z,68.57
2022-12-09T03:26:55.868Z,68.55
2022-12-09T03:29:32.216Z,69.10
2022-12-09T03:32:08.401Z,69.14
2022-12-09T03:34:45.453Z,69.25
2022-12-09T03:37:22.552Z,69.19
2022-12-09T03:39:59.197Z,69.43
2022-12-09T03:42:39.044Z,69.13
2022-12-09T03:45:13.599Z,69.42
2022-12-09T03:47:46.882Z,69.28
2022-12-09T03:50:21.901Z,69.41
2022-12-09T03:53:04.422Z,69.28
2022-12-09T03:55:45.156Z,69.41
2022-12-09T03:58:18.698Z,69.13
2022-12-09T04:00:52.749Z,69.59
2022-12-09T04:03:26.055Z,69.43
2022-12-09T04:05:59.438Z,69.11
2022-12-09T04:08:34.921Z,68.89
2022-12-09T04:11:07.859Z,68.79
2022-12-09T04:13:40.809Z,69.46
2022-12-09T04:16:13.654Z,68.80
2022-12-09T04:18:47.580Z,68.78
2022-12-09T04:21:20.915Z,69.34
2022-12-09T04:23:55.173Z,69.20
2022-12-09T04:26:28.411Z,69.24
2022-12-09T04:29:02.478Z,69.48
2022-12-09T04:31:35.876Z,69.63
2022-12-09T04:34:10.047Z,69.79
2022-12-09T04:36:43.764Z,69.68
2022-12-09T04:39:19.511Z,69.76
2022-12-09T04:41:52.423Z,70.23
2022-12-09T04:44:25.378Z,69.42
2022-12-09T04:46:58.591Z,69.75
2022-12-09T04:49:32.319Z,69.68
2022-12-09T04:52:05.467Z,69.37
2022-12-09T04:54:39.896Z,69.80
2022-12-09T04:57:13.235Z,69.46
2022-12-09T04:59:46.510Z,69.34
2022-12-09T05:02:19.852Z,69.30
2022-12-09T05:04:53.267Z,69.47
2022-12-09T05:07:26.349Z,69.61
2022-12-09T05:10:02.219Z,69.60
2022-12-09T05:12:36.085Z,69.21
2022-12-09T05:15:10.370Z,69.21
2022-12-09T05:17:43.720Z,69.15
2022-12-09T05:20:17.095Z,69.15
2022-12-09T05:22:53.801Z,69.17
2022-12-09T05:25:28.723Z,69.22
2022-12-09T05:28:01.666Z,69.24
2022-12-09T05:30:34.748Z,69.79
2022-12-09T05:33:08.397Z,69.61
2022-12-09T05:35:52.240Z,69.41
2022-12-09T05:38:27.597Z,69.37
2022-12-09T05:41:02.276Z,69.18
2022-12-09T05:43:36.869Z,69.17
2022-12-09T05:46:10.335Z,69.00
2022-12-09T05:48:44.327Z,69.05
2022-12-09T05:51:24.804Z,69.09
2022-12-09T05:53:59.038Z,69.18
2022-12-09T05:56:34.509Z,68.80
2022-12-09T05:59:07.750Z,68.97
2022-12-09T06:01:41.393Z,68.81
2022-12-09T06:04:14.655Z,68.81
2022-12-09T06:06:48.264Z,69.18
2022-12-09T06:09:21.935Z,68.57
2022-12-09T06:11:56.928Z,68.71
2022-12-09T06:14:30.843Z,68.67
2022-12-09T06:17:03.938Z,68.72
2022-12-09T06:19:37.051Z,68.75
2022-12-09T06:22:12.742Z,68.73
2022-12-09T06:24:49.961Z,68.60
2022-12-09T06:27:27.113Z,68.44
2022-12-09T06:30:00.753Z,68.69
2022-12-09T06:32:34.449Z,68.67
2022-12-09T06:35:08.781Z,68.83
2022-12-09T06:37:43.626Z,68.64
2022-12-09T06:40:16.967Z,68.40
2022-12-09T06:42:54.928Z,68.75
2022-12-09T06:45:28.205Z,68.74
2022-12-09T06:48:01.850Z,68.84
2022-12-09T06:50:35.593Z,69.35
2022-12-09T06:53:09.536Z,69.29
2022-12-09T06:55:42.860Z,69.27
2022-12-09T06:58:17.490Z,69.47
2022-12-09T07:00:51.115Z,69.05
2022-12-09T07:03:24.620Z,69.39
2022-12-09T07:05:58.591Z,69.22
2022-12-09T07:08:32.222Z,69.47
2022-12-09T07:11:05.990Z,69.06
2022-12-09T07:13:40.595Z,69.29
2022-12-09T07:16:15.869Z,69.65
2022-12-09T07:18:49.621Z,69.60
2022-12-09T07:21:24.744Z,69.44
2022-12-09T07:24:00.881Z,69.64
2022-12-09T07:26:35.805Z,69.64
2022-12-09T07:29:10.507Z,69.63
2022-12-09T07:31:45.324Z,69.44
2022-12-09T07:34:20.285Z,69.68
2022-12-09T07:36:53.967Z,69.52
2022-12-09T07:39:28.648Z,69.71
2022-12-09T07:42:02.245Z,69.60
2022-12-09T07:44:37.096Z,69.78
2022-12-09T07:47:10.220Z,69.77
2022-12-09T07:49:43.803Z,69.70
2022-12-09T07:52:16.958Z,69.62
2022-12-09T07:54:50.507Z,69.79
2022-12-09T07:57:23.808Z,69.87
2022-12-09T07:59:58.223Z,69.87
2022-12-09T08:02:31.336Z,69.87
2022-12-09T08:05:05.336Z,69.87
2022-12-09T08:07:43.894Z,70.21
2022-12-09T08:10:18.074Z,70.19
2022-12-09T08:12:53.587Z,70.43
2022-12-09T08:15:28.038Z,70.31
2022-12-09T08:18:01.227Z,70.36
2022-12-09T08:20:34.739Z,70.31
2022-12-09T08:23:08.974Z,70.28
2022-12-09T08:25:42.023Z,70.19
2022-12-09T08:28:15.179Z,70.41
2022-12-09T08:30:50.440Z,70.52
2022-12-09T08:33:24.506Z,70.36
2022-12-09T08:35:57.588Z,70.35
2022-12-09T08:38:32.039Z,70.54
2022-12-09T08:41:11.176Z,70.67
2022-12-09T08:43:45.708Z,70.53
2022-12-09T08:46:20.451Z,70.76
2022-12-09T08:48:53.825Z,70.52
2022-12-09T08:51:26.835Z,70.61
2022-12-09T08:54:01.520Z,70.78
2022-12-09T08:56:34.726Z,70.67
2022-12-09T08:59:08.372Z,70.80
2022-12-09T09:01:43.048Z,71.09
2022-12-09T09:04:18.130Z,70.71
2022-12-09T09:06:52.907Z,71.34
2022-12-09T09:09:26.886Z,70.82
2022-12-09T09:12:00.539Z,70.81
2022-12-09T09:14:34.213Z,71.42
2022-12-09T09:17:09.332Z,71.59
2022-12-09T09:19:42.702Z,71.72
2022-12-09T09:22:15.848Z,71.96
2022-12-09T09:24:49.048Z,71.81
2022-12-09T09:27:22.430Z,72.13
2022-12-09T09:29:55.685Z,71.84
2022-12-09T09:32:30.442Z,71.83
2022-12-09T09:35:04.336Z,71.79
2022-12-09T09:37:37.697Z,71.64
2022-12-09T09:40:12.713Z,71.92
2022-12-09T09:42:51.160Z,71.83
2022-12-09T09:45:26.226Z,71.97
2022-12-09T09:48:03.866Z,71.59
2022-12-09T09:50:44.548Z,71.96
2022-12-09T09:53:23.465Z,71.95
2022-12-09T09:56:00.690Z,71.79
2022-12-09T09:58:40.639Z,71.69
2022-12-09T10:01:15.801Z,71.77
2022-12-09T10:03:59.190Z,72.12
2022-12-09T10:06:42.429Z,71.90
2022-12-09T10:09:25.792Z,71.80
2022-12-09T10:12:03.052Z,72.33
2022-12-09T10:14:45.784Z,72.29
2022-12-09T10:17:27.280Z,71.97
2022-12-09T10:20:12.839Z,71.71
2022-12-09T10:22:53.226Z,71.78
2022-12-09T10:25:28.569Z,71.42
2022-12-09T10:28:09.389Z,71.64
2022-12-09T10:30:45.026Z,71.77
2022-12-09T10:33:20.084Z,72.23
2022-12-09T10:35:55.612Z,72.01
2022-12-09T10:38:31.629Z,71.76
2022-12-09T10:41:11.109Z,71.32
2022-12-09T10:43:44.261Z,71.22
2022-12-09T10:46:24.519Z,70.68
2022-12-09T10:49:02.228Z,70.79
2022-12-09T10:51:39.650Z,70.76
2022-12-09T10:54:22.459Z,71.49
2022-12-09T10:57:08.335Z,71.03
2022-12-09T10:59:43.740Z,71.10
2022-12-09T11:02:22.080Z,71.31
2022-12-09T11:04:55.916Z,71.31
2022-12-09T11:07:30.698Z,70.79
2022-12-09T11:10:18.478Z,71.13
2022-12-09T11:12:54.652Z,71.20
2022-12-09T11:15:33.338Z,71.15
2022-12-09T11:18:08.836Z,71.16
2022-12-09T11:20:42.326Z,71.14
2022-12-09T11:23:19.724Z,71.83
2022-12-09T11:25:55.669Z,71.14
2022-12-09T11:28:31.183Z,71.46
2022-12-09T11:34:04.620Z,71.91
2022-12-09T11:36:44.343Z,71.83
2022-12-09T11:39:25.043Z,71.71
2022-12-09T11:42:19.000Z,71.84
2022-12-09T11:44:57.839Z,72.27
2022-12-09T11:47:57.300Z,72.31
2022-12-09T11:50:31.975Z,72.78
2022-12-09T11:53:19.160Z,72.47
2022-12-09T11:55:57.522Z,72.10
2022-12-09T11:58:35.972Z,71.80
2022-12-09T12:01:13.626Z,72.10
2022-12-09T12:03:49.020Z,72.31
2022-12-09T12:06:25.082Z,72.29
2022-12-09T12:09:04.186Z,72.52
2022-12-09T12:11:46.276Z,72.73
2022-12-09T12:14:24.302Z,72.82
2022-12-09T12:17:06.118Z,72.76
2022-12-09T12:19:40.344Z,72.77
2022-12-09T12:22:28.845Z,73.71
2022-12-09T12:25:24.255Z,73.63
2022-12-09T12:28:29.629Z,73.47
2022-12-09T12:31:21.129Z,73.41
2022-12-09T12:37:10.779Z,72.28
2022-12-09T12:40:07.113Z,72.74
2022-12-09T12:43:07.865Z,72.22
2022-12-09T12:46:15.166Z,71.75
2022-12-09T12:49:02.647Z,71.73
2022-12-09T12:51:49.735Z,70.98
2022-12-09T12:54:42.355Z,71.50
2022-12-09T12:57:24.072Z,71.14
2022-12-09T13:00:02.696Z,71.64
2022-12-09T13:02:46.904Z,72.34
2022-12-09T13:05:23.451Z,71.96
2022-12-09T13:08:00.808Z,71.94
2022-12-09T13:10:39.583Z,72.35
2022-12-09T13:13:30.185Z,72.26
2022-12-09T13:16:19.397Z,72.69
2022-12-09T13:18:52.874Z,73.01
2022-12-09T13:21:27.407Z,72.54
2022-12-09T13:24:09.653Z,72.72
2022-12-09T13:26:51.609Z,72.43
2022-12-09T13:29:36.043Z,72.13
2022-12-09T13:32:22.576Z,71.42
2022-12-09T13:35:04.211Z,72.14
2022-12-09T13:38:00.875Z,72.38
2022-12-09T13:40:36.856Z,72.17
2022-12-09T13:43:19.830Z,71.77
2022-12-09T13:45:57.023Z,72.44
2022-12-09T13:48:47.558Z,72.14
2022-12-09T13:51:22.968Z,71.85
2022-12-09T13:54:06.930Z,71.95
2022-12-09T13:56:40.970Z,72.19
2022-12-09T13:59:41.338Z,72.38
2022-12-09T14:02:22.821Z,73.12
2022-12-09T14:05:08.742Z,72.79
2022-12-09T14:07:47.553Z,73.10
2022-12-09T14:10:44.300Z,73.36
2022-12-09T14:13:26.412Z,72.73
2022-12-09T14:16:17.799Z,73.14
2022-12-09T14:18:52.756Z,72.99
2022-12-09T14:21:29.365Z,73.06
2022-12-09T14:24:42.309Z,73.16
2022-12-09T14:27:19.879Z,72.74
2022-12-09T14:29:56.112Z,72.14
2022-12-09T14:32:31.893Z,72.51
2022-12-09T14:35:22.738Z,72.16
2022-12-09T14:38:05.717Z,71.97
2022-12-09T14:40:59.228Z,72.71
2022-12-09T14:44:13.670Z,73.05
2022-12-09T14:46:54.254Z,72.82
2022-12-09T14:49:30.629Z,73.11
2022-12-09T14:52:11.315Z,73.01
2022-12-09T14:54:47.118Z,72.63
2022-12-09T14:57:25.666Z,73.12
2022-12-09T14:59:58.959Z,73.08
2022-12-09T15:02:33.572Z,73.09
2022-12-09T15:05:18.813Z,73.21
2022-12-09T15:07:52.226Z,72.97
2022-12-09T15:10:36.751Z,73.78
2022-12-09T15:13:10.426Z,73.45
2022-12-09T15:15:45.080Z,73.84
2022-12-09T15:18:22.917Z,73.94
2022-12-09T15:20:58.074Z,74.44
2022-12-09T15:23:32.551Z,74.63
2022-12-09T15:26:07.953Z,74.04
2022-12-09T15:28:48.791Z,73.94
2022-12-09T15:31:23.489Z,74.12
2022-12-09T15:34:00.084Z,74.17
2022-12-09T15:36:37.806Z,74.10
2022-12-09T15:39:14.585Z,73.42
2022-12-09T15:42:09.515Z,73.16
2022-12-09T15:44:47.481Z,72.99
2022-12-09T15:47:24.707Z,73.23
2022-12-09T15:50:03.605Z,73.08
2022-12-09T15:52:42.670Z,72.84
2022-12-09T15:55:19.401Z,72.90
2022-12-09T15:57:56.185Z,72.99
2022-12-09T16:00:29.697Z,73.13
2022-12-09T16:03:02.831Z,73.77
2022-12-09T16:05:42.030Z,73.62
2022-12-09T16:08:15.357Z,73.70
2022-12-09T16:10:50.067Z,73.78
2022-12-09T16:13:23.286Z,74.21
2022-12-09T16:15:58.005Z,73.89
2022-12-09T16:18:36.723Z,74.06
2022-12-09T16:21:27.953Z,74.04
2022-12-09T16:24:08.380Z,74.37
2022-12-09T16:26:47.679Z,74.13
2022-12-09T16:29:27.215Z,74.26
2022-12-09T16:32:20.841Z,73.96
2022-12-09T16:34:56.086Z,74.23
2022-12-09T16:37:37.876Z,74.16
2022-12-09T16:40:37.637Z,73.80
2022-12-09T16:43:22.102Z,73.47
2022-12-09T16:45:56.948Z,73.69
2022-12-09T16:48:31.667Z,73.36
2022-12-09T16:51:11.116Z,73.62
2022-12-09T16:53:47.720Z,73.77
2022-12-09T16:56:22.569Z,73.39
2022-12-09T16:58:56.340Z,73.53
2022-12-09T17:01:33.945Z,73.17
2022-12-09T17:04:14.924Z,73.36
2022-12-09T17:06:48.124Z,73.16
2022-12-09T17:09:22.571Z,73.42
2022-12-09T17:11:55.700Z,73.41
2022-12-09T17:14:29.077Z,74.02
2022-12-09T17:17:02.998Z,73.76
2022-12-09T17:19:36.401Z,73.96
2022-12-09T17:22:09.591Z,73.72
2022-12-09T17:24:43.934Z,73.88
2022-12-09T17:27:17.061Z,73.99
2022-12-09T17:29:49.938Z,74.37
2022-12-09T17:32:24.449Z,73.49
2022-12-09T17:34:57.572Z,74.11
2022-12-09T17:37:30.500Z,73.87
2022-12-09T17:40:05.262Z,73.58
2022-12-09T17:42:38.520Z,74.11
2022-12-09T17:45:11.375Z,73.79
2022-12-09T17:47:45.280Z,74.19
2022-12-09T17:50:18.344Z,73.59
2022-12-09T17:52:51.467Z,73.93
2022-12-09T17:55:27.139Z,73.58
2022-12-09T17:58:00.034Z,73.18
2022-12-09T18:00:33.944Z,73.89
2022-12-09T18:03:07.432Z,73.82
2022-12-09T18:05:40.864Z,73.64
2022-12-09T18:08:14.020Z,73.31
2022-12-09T18:10:48.460Z,73.53
2022-12-09T18:13:21.455Z,73.84
2022-12-09T18:15:54.608Z,74.06
2022-12-09T18:18:29.373Z,73.88
2022-12-09T18:21:02.743Z,74.02
2022-12-09T18:23:35.844Z,73.40
2022-12-09T18:26:12.299Z,74.09
2022-12-09T18:28:46.689Z,74.03
2022-12-09T18:31:20.451Z,73.70
2022-12-09T18:33:54.513Z,73.99
2022-12-09T18:36:29.874Z,73.90
2022-12-09T18:39:03.161Z,74.25
2022-12-09T18:41:37.740Z,74.19
2022-12-09T18:44:12.356Z,73.78
2022-12-09T18:46:48.914Z,74.20
2022-12-09T18:49:23.886Z,74.15
2022-12-09T18:51:57.163Z,74.13
2022-12-09T18:54:32.472Z,73.85
2022-12-09T18:57:07.470Z,74.22
2022-12-09T18:59:40.585Z,73.53
2022-12-09T19:02:15.810Z,73.57
2022-12-09T19:04:48.962Z,74.26
2022-12-09T19:07:22.333Z,73.85
2022-12-09T19:09:57.349Z,74.17
2022-12-09T19:12:46.915Z,73.67
2022-12-09T19:15:20.760Z,73.85
2022-12-09T19:17:53.930Z,74.16
2022-12-09T19:20:28.387Z,74.22
2022-12-09T19:23:02.324Z,73.73
2022-12-09T19:25:35.919Z,74.28
2022-12-09T19:28:14.258Z,73.71
2022-12-09T19:30:49.978Z,73.66
2022-12-09T19:33:23.142Z,73.59
2022-12-09T19:35:56.086Z,73.76
2022-12-09T19:38:29.272Z,73.67
2022-12-09T19:41:02.542Z,73.83
2022-12-09T19:43:37.264Z,73.37
2022-12-09T19:46:12.989Z,72.98
2022-12-09T19:48:46.244Z,72.59
2022-12-09T19:51:21.092Z,72.78
2022-12-09T19:53:55.058Z,73.20
2022-12-09T19:56:28.280Z,72.55
2022-12-09T19:59:02.766Z,72.25
2022-12-09T20:01:39.315Z,72.19
2022-12-09T20:04:46.868Z,72.63
2022-12-09T20:07:08.623Z,72.30
2022-12-09T20:09:41.573Z,72.31
2022-12-09T20:12:14.769Z,72.05
2022-12-09T20:14:49.256Z,72.62
2022-12-09T20:17:22.270Z,72.45
2022-12-09T20:19:55.134Z,72.23
2022-12-09T20:22:28.307Z,72.43
2022-12-09T20:25:01.330Z,72.97
2022-12-09T20:27:35.376Z,72.97
2022-12-09T20:30:12.067Z,72.72
2022-12-09T20:32:45.010Z,72.66
2022-12-09T20:35:18.948Z,72.63
2022-12-09T20:37:52.040Z,72.58
2022-12-09T20:40:25.320Z,72.66
2022-12-09T20:42:59.236Z,72.31
2022-12-09T20:45:33.733Z,72.86
2022-12-09T20:48:07.752Z,72.75
2022-12-09T20:50:40.870Z,72.65
2022-12-09T20:53:13.678Z,73.14
2022-12-09T20:55:56.841Z,72.59
2022-12-09T20:58:30.259Z,73.46
2022-12-09T21:01:08.963Z,72.91
2022-12-09T21:03:42.908Z,73.42
2022-12-09T21:06:17.539Z,73.39
2022-12-09T21:08:51.506Z,72.94
2022-12-09T21:11:26.195Z,72.80
2022-12-09T21:14:02.679Z,72.46
2022-12-09T21:16:40.583Z,72.61
2022-12-09T21:19:16.599Z,72.42
2022-12-09T21:21:50.770Z,72.63
2022-12-09T21:24:24.754Z,73.09
2022-12-09T21:26:57.796Z,73.01
2022-12-09T21:29:32.439Z,73.02
2022-12-09T21:32:07.091Z,73.02
2022-12-09T21:34:40.315Z,73.10
2022-12-09T21:37:16.009Z,73.98
2022-12-09T21:39:49.005Z,73.65
2022-12-09T21:42:21.969Z,74.00
2022-12-09T21:44:54.895Z,74.41
2022-12-09T21:47:29.348Z,74.29
2022-12-09T21:50:02.245Z,74.03
2022-12-09T21:52:35.436Z,73.95
2022-12-09T21:55:08.891Z,73.97
2022-12-09T21:57:42.148Z,73.02
2022-12-09T22:00:15.777Z,73.81
2022-12-09T22:02:54.463Z,73.46
2022-12-09T22:05:27.652Z,73.77
2022-12-09T22:08:01.750Z,73.16
2022-12-09T22:10:40.513Z,73.15
2022-12-09T22:13:14.086Z,73.36
2022-12-09T22:15:47.106Z,73.17
2022-12-09T22:18:21.588Z,73.47
2022-12-09T22:21:23.537Z,73.06
2022-12-09T22:23:48.096Z,73.26
2022-12-09T22:26:22.324Z,73.80
2022-12-09T22:28:55.752Z,73.51
2022-12-09T22:31:31.479Z,73.08
2022-12-09T22:34:09.125Z,73.50
2022-12-09T22:36:42.255Z,73.29
2022-12-09T22:39:16.210Z,73.38
2022-12-09T22:41:49.276Z,73.82
2022-12-09T22:44:22.397Z,73.45
2022-12-09T22:46:55.577Z,73.35
2022-12-09T22:49:30.466Z,73.30
2022-12-09T22:52:03.662Z,73.08
2022-12-09T22:54:37.128Z,73.05
2022-12-09T22:57:10.463Z,73.00
2022-12-09T22:59:43.498Z,73.14
2022-12-09T23:02:16.681Z,73.21
2022-12-09T23:04:52.032Z,73.28
2022-12-09T23:07:25.096Z,73.06
2022-12-09T23:09:58.045Z,73.31
2022-12-09T23:12:30.948Z,73.28
2022-12-09T23:15:04.018Z,73.41
2022-12-09T23:17:37.551Z,73.30
2022-12-09T23:20:13.530Z,73.20
2022-12-09T23:22:46.635Z,73.06
2022-12-09T23:25:19.891Z,73.08
2022-12-09T23:27:53.086Z,73.19
2022-12-09T23:30:26.582Z,74.08
2022-12-09T23:32:59.468Z,73.96
2022-12-09T23:35:38.563Z,73.98
2022-12-09T23:38:11.599Z,73.93
2022-12-09T23:40:51.786Z,74.07
2022-12-09T23:43:25.326Z,74.47
2022-12-09T23:46:02.176Z,74.22
2022-12-09T23:48:36.955Z,74.15
2022-12-09T23:51:13.263Z,74.08
2022-12-09T23:53:50.267Z,73.84
2022-12-09T23:56:25.502Z,73.45
2022-12-09T23:59:00.375Z,74.01
